createdAt,value
2023-05-03T00:01:37.607Z,4.60
2023-05-03T00:03:40.432Z,4.50
2023-05-03T00:05:43.280Z,4.60
2023-05-03T00:07:46.683Z,4.50
2023-05-03T00:09:50.020Z,4.50
2023-05-03T00:11:53.418Z,4.40
2023-05-03T00:13:56.222Z,4.30
2023-05-03T00:16:00.602Z,4.30
2023-05-03T00:18:03.386Z,4.40
2023-05-03T00:20:08.145Z,4.40
2023-05-03T00:22:12.842Z,4.50
2023-05-03T00:24:15.667Z,4.40
2023-05-03T00:26:18.416Z,4.40
2023-05-03T00:28:21.310Z,4.30
2023-05-03T00:30:25.656Z,4.30
2023-05-03T00:32:29.772Z,4.30
2023-05-03T00:34:32.578Z,4.20
2023-05-03T00:36:37.069Z,4.20
2023-05-03T00:38:40.062Z,4.20
2023-05-03T00:40:43.131Z,4.10
2023-05-03T00:42:46.449Z,4.10
2023-05-03T00:44:49.231Z,4.00
2023-05-03T00:46:52.160Z,3.90
2023-05-03T00:48:56.402Z,3.90
2023-05-03T00:50:59.332Z,3.90
2023-05-03T00:53:03.100Z,4.00
2023-05-03T00:55:07.280Z,4.00
2023-05-03T00:57:10.067Z,4.00
2023-05-03T00:59:13.979Z,4.00
2023-05-03T01:01:16.885Z,4.00
2023-05-03T01:03:19.712Z,4.00
2023-05-03T01:05:23.947Z,3.90
2023-05-03T01:07:31.892Z,3.90
2023-05-03T01:09:39.530Z,3.80
2023-05-03T01:11:56.002Z,3.80
2023-05-03T01:14:14.944Z,3.80
2023-05-03T01:16:19.829Z,3.90
2023-05-03T01:18:24.490Z,3.80
2023-05-03T01:20:30.894Z,3.70
2023-05-03T01:22:37.936Z,3.70
2023-05-03T01:24:40.772Z,3.70
2023-05-03T01:26:44.881Z,3.70
2023-05-03T01:28:47.984Z,3.70
2023-05-03T01:30:51.083Z,3.60
2023-05-03T01:32:57.122Z,3.60
2023-05-03T01:35:02.917Z,3.60
2023-05-03T01:37:05.870Z,3.60
2023-05-03T01:39:10.511Z,3.50
2023-05-03T01:41:13.851Z,3.50
2023-05-03T01:43:18.284Z,3.40
2023-05-03T01:45:21.167Z,3.40
2023-05-03T01:47:24.032Z,3.40
2023-05-03T01:49:26.868Z,3.40
2023-05-03T01:51:29.632Z,3.40
2023-05-03T01:53:32.399Z,3.40
2023-05-03T01:55:35.147Z,3.30
2023-05-03T01:57:37.962Z,3.30
2023-05-03T01:59:42.121Z,3.30
2023-05-03T02:01:44.873Z,3.40
2023-05-03T02:03:47.647Z,3.40
2023-05-03T02:05:50.420Z,3.30
2023-05-03T02:07:53.226Z,3.20
2023-05-03T02:09:56.019Z,3.20
2023-05-03T02:11:58.779Z,3.20
2023-05-03T02:14:01.590Z,3.20
2023-05-03T02:16:05.970Z,3.10
2023-05-03T02:18:09.635Z,3.10
2023-05-03T02:20:12.793Z,3.10
2023-05-03T02:22:15.566Z,3.00
2023-05-03T02:24:19.928Z,3.00
2023-05-03T02:26:22.729Z,2.90
2023-05-03T02:28:25.491Z,2.90
2023-05-03T02:30:28.277Z,2.90
2023-05-03T02:32:32.390Z,2.90
2023-05-03T02:34:35.193Z,2.90
2023-05-03T02:36:38.041Z,3.00
2023-05-03T02:38:40.873Z,2.90
2023-05-03T02:40:43.625Z,2.80
2023-05-03T02:42:46.388Z,2.80
2023-05-03T02:44:49.161Z,2.70
2023-05-03T02:46:51.905Z,2.70
2023-05-03T02:48:55.993Z,2.70
2023-05-03T02:50:58.722Z,2.70
2023-05-03T02:53:01.642Z,2.70
2023-05-03T02:55:05.570Z,2.70
2023-05-03T02:57:08.316Z,2.60
2023-05-03T02:59:11.795Z,2.70
2023-05-03T03:01:14.626Z,2.70
2023-05-03T03:03:17.535Z,2.60
2023-05-03T03:05:21.925Z,2.70
2023-05-03T03:07:24.735Z,2.70
2023-05-03T03:09:27.502Z,2.80
2023-05-03T03:11:30.310Z,2.80
2023-05-03T03:13:33.164Z,2.80
2023-05-03T03:15:35.953Z,2.80
2023-05-03T03:17:39.739Z,2.80
2023-05-03T03:19:42.577Z,2.70
2023-05-03T03:21:46.679Z,2.70
2023-05-03T03:23:49.470Z,2.70
2023-05-03T03:25:52.231Z,2.60
2023-05-03T03:27:55.024Z,2.60
2023-05-03T03:29:57.806Z,2.60
2023-05-03T03:32:00.595Z,2.50
2023-05-03T03:34:03.379Z,2.50
2023-05-03T03:36:07.792Z,2.50
2023-05-03T03:38:11.906Z,2.50
2023-05-03T03:40:14.938Z,2.50
2023-05-03T03:42:19.108Z,2.50
2023-05-03T03:44:22.502Z,2.50
2023-05-03T03:46:25.832Z,2.50
2023-05-03T03:48:28.719Z,2.50
2023-05-03T03:50:31.488Z,2.50
2023-05-03T03:52:34.242Z,2.50
2023-05-03T03:54:38.378Z,2.50
2023-05-03T03:56:41.144Z,2.40
2023-05-03T03:58:43.929Z,2.40
2023-05-03T04:00:46.687Z,2.40
2023-05-03T04:02:49.671Z,2.50
2023-05-03T04:04:53.184Z,2.50
2023-05-03T04:06:55.960Z,2.50
2023-05-03T04:08:58.744Z,2.50
2023-05-03T04:11:03.281Z,2.50
2023-05-03T04:13:06.040Z,2.50
2023-05-03T04:15:10.124Z,2.50
2023-05-03T04:17:12.994Z,2.50
2023-05-03T04:19:15.792Z,2.60
2023-05-03T04:21:19.766Z,2.60
2023-05-03T04:23:22.543Z,2.60
2023-05-03T04:25:25.688Z,2.60
2023-05-03T04:27:30.134Z,2.60
2023-05-03T04:29:33.028Z,2.60
2023-05-03T04:31:35.777Z,2.70
2023-05-03T04:33:38.631Z,2.70
2023-05-03T04:35:41.480Z,2.80
2023-05-03T04:37:44.243Z,2.90
2023-05-03T04:39:47.132Z,2.90
2023-05-03T04:41:49.920Z,3.00
2023-05-03T04:43:54.331Z,3.00
2023-05-03T04:45:57.482Z,3.10
2023-05-03T04:48:00.457Z,3.00
2023-05-03T04:50:03.976Z,3.20
2023-05-03T04:52:07.023Z,3.20
2023-05-03T04:54:09.797Z,3.30
2023-05-03T04:56:12.627Z,3.30
2023-05-03T04:58:15.458Z,3.30
2023-05-03T05:00:21.285Z,3.50
2023-05-03T05:02:24.439Z,3.50
2023-05-03T05:04:27.261Z,3.50
2023-05-03T05:06:30.051Z,3.50
2023-05-03T05:08:32.858Z,3.50
2023-05-03T05:10:38.750Z,3.60
2023-05-03T05:12:41.763Z,3.70
2023-05-03T05:14:44.992Z,3.80
2023-05-03T05:16:49.344Z,3.90
2023-05-03T05:18:52.398Z,3.90
2023-05-03T05:20:55.169Z,4.10
2023-05-03T05:22:57.929Z,4.30
2023-05-03T05:25:00.693Z,4.30
2023-05-03T05:27:04.720Z,4.40
2023-05-03T05:29:07.520Z,4.50
2023-05-03T05:31:10.397Z,4.60
2023-05-03T05:33:16.011Z,4.70
2023-05-03T05:35:20.172Z,4.80
2023-05-03T05:37:23.317Z,5.00
2023-05-03T05:39:26.207Z,5.10
2023-05-03T05:41:29.281Z,5.20
2023-05-03T05:43:32.174Z,5.30
2023-05-03T05:45:35.435Z,5.40
2023-05-03T05:47:38.249Z,5.50
2023-05-03T05:49:42.372Z,5.60
2023-05-03T05:51:45.890Z,5.80
2023-05-03T05:53:48.692Z,5.90
2023-05-03T05:55:51.455Z,6.00
2023-05-03T05:57:54.217Z,6.10
2023-05-03T05:59:57.220Z,6.20
2023-05-03T06:02:00.340Z,6.30
2023-05-03T06:04:03.725Z,6.40
2023-05-03T06:06:08.472Z,6.30
2023-05-03T06:08:11.513Z,6.50
2023-05-03T06:10:14.298Z,6.70
2023-05-03T06:12:17.088Z,6.80
2023-05-03T06:14:20.717Z,7.00
2023-05-03T06:16:23.633Z,7.30
2023-05-03T06:18:26.431Z,7.50
2023-05-03T06:20:29.234Z,7.70
2023-05-03T06:22:33.356Z,7.80
2023-05-03T06:24:36.153Z,7.90
2023-05-03T06:26:38.985Z,7.90
2023-05-03T06:28:41.806Z,8.00
2023-05-03T06:30:49.766Z,8.20
2023-05-03T06:32:52.668Z,8.30
2023-05-03T06:34:55.806Z,8.40
2023-05-03T06:36:58.598Z,8.70
2023-05-03T06:39:04.594Z,8.80
2023-05-03T06:41:07.343Z,9.00
2023-05-03T06:43:10.123Z,9.10
2023-05-03T06:45:13.111Z,9.20
2023-05-03T06:47:16.257Z,9.30
2023-05-03T06:49:19.055Z,9.30
2023-05-03T06:51:27.244Z,9.40
2023-05-03T06:53:30.033Z,9.60
2023-05-03T06:55:34.254Z,9.60
2023-05-03T06:57:37.022Z,10.00
2023-05-03T06:59:39.801Z,10.10
2023-05-03T07:01:42.662Z,10.20
2023-05-03T07:03:45.660Z,10.60
2023-05-03T07:05:49.266Z,10.90
2023-05-03T07:07:52.044Z,10.90
2023-05-03T07:09:54.846Z,11.00
2023-05-03T07:11:58.957Z,11.40
2023-05-03T07:14:01.843Z,11.90
2023-05-03T07:16:05.277Z,11.90
2023-05-03T07:18:08.977Z,12.00
2023-05-03T07:20:12.745Z,12.20
2023-05-03T07:22:15.632Z,12.10
2023-05-03T07:24:19.084Z,12.30
2023-05-03T07:26:21.864Z,12.50
2023-05-03T07:28:26.402Z,12.90
2023-05-03T07:30:29.472Z,12.70
2023-05-03T07:32:33.105Z,12.00
2023-05-03T07:34:36.205Z,12.90
2023-05-03T07:36:39.779Z,12.90
2023-05-03T07:38:42.607Z,12.70
2023-05-03T07:40:45.570Z,13.10
2023-05-03T07:42:48.394Z,13.20
2023-05-03T07:44:53.458Z,12.40
2023-05-03T07:46:56.226Z,12.00
2023-05-03T07:48:59.623Z,11.50
2023-05-03T07:51:04.025Z,11.40
2023-05-03T07:53:06.793Z,11.00
2023-05-03T07:55:10.091Z,11.50
2023-05-03T07:57:13.554Z,11.20
2023-05-03T07:59:16.414Z,11.50
2023-05-03T08:01:21.105Z,11.90
2023-05-03T08:03:24.199Z,12.60
2023-05-03T08:05:27.299Z,13.10
2023-05-03T08:07:30.567Z,13.40
2023-05-03T08:09:33.354Z,13.90
2023-05-03T08:11:36.739Z,14.00
2023-05-03T08:13:39.574Z,14.30
2023-05-03T08:15:42.423Z,14.40
2023-05-03T08:17:46.806Z,14.50
2023-05-03T08:19:49.687Z,14.50
2023-05-03T08:21:54.465Z,14.70
2023-05-03T08:23:57.254Z,14.50
2023-05-03T08:26:00.312Z,14.60
2023-05-03T08:28:03.091Z,15.00
2023-05-03T08:30:07.207Z,14.90
2023-05-03T08:32:10.725Z,14.50
2023-05-03T08:34:14.849Z,14.10
2023-05-03T08:36:17.657Z,13.60
2023-05-03T08:38:20.515Z,13.20
2023-05-03T08:40:23.967Z,13.10
2023-05-03T08:42:26.939Z,12.30
2023-05-03T08:44:30.474Z,12.80
2023-05-03T08:46:37.085Z,13.30
2023-05-03T08:48:39.958Z,13.00
2023-05-03T08:50:44.082Z,12.60
2023-05-03T08:52:46.931Z,12.70
2023-05-03T08:54:50.314Z,13.60
2023-05-03T08:56:53.106Z,14.20
2023-05-03T08:58:55.903Z,14.30
2023-05-03T09:00:58.669Z,14.40
2023-05-03T09:03:01.519Z,15.00
2023-05-03T09:05:05.816Z,15.30
2023-05-03T09:07:10.401Z,15.60
2023-05-03T09:09:14.318Z,16.00
2023-05-03T09:11:24.108Z,15.80
2023-05-03T09:13:31.849Z,16.10
2023-05-03T09:15:34.821Z,16.30
2023-05-03T09:17:37.641Z,16.40
2023-05-03T09:19:50.596Z,16.60
2023-05-03T09:21:53.415Z,15.60
2023-05-03T09:23:57.704Z,16.10
2023-05-03T09:26:01.029Z,16.20
2023-05-03T09:28:03.998Z,16.40
2023-05-03T09:30:18.584Z,16.80
2023-05-03T09:32:22.050Z,16.80
2023-05-03T09:34:24.964Z,16.40
2023-05-03T09:36:28.257Z,16.70
2023-05-03T09:38:31.760Z,17.00
2023-05-03T09:40:35.950Z,16.80
2023-05-03T09:42:41.103Z,17.30
2023-05-03T09:44:44.955Z,17.10
2023-05-03T09:47:03.580Z,14.50
2023-05-03T09:49:06.793Z,16.70
2023-05-03T09:51:10.088Z,17.00
2023-05-03T09:53:12.962Z,17.20
2023-05-03T09:55:17.418Z,16.80
2023-05-03T09:57:21.525Z,17.00
2023-05-03T09:59:24.449Z,17.90
2023-05-03T10:01:27.283Z,17.90
2023-05-03T10:03:33.740Z,17.70
2023-05-03T10:05:40.735Z,17.10
2023-05-03T10:07:43.531Z,16.60
2023-05-03T10:09:47.328Z,17.10
2023-05-03T10:11:52.756Z,17.20
2023-05-03T10:13:56.992Z,17.00
2023-05-03T10:16:01.411Z,17.80
2023-05-03T10:18:05.153Z,17.40
2023-05-03T10:20:11.569Z,17.90
2023-05-03T10:22:14.329Z,18.30
2023-05-03T10:24:17.542Z,18.70
2023-05-03T10:26:20.505Z,18.10
2023-05-03T10:28:23.363Z,18.10
2023-05-03T10:30:32.566Z,17.70
2023-05-03T10:32:36.048Z,18.20
2023-05-03T10:34:40.352Z,17.20
2023-05-03T10:36:49.730Z,18.50
2023-05-03T10:38:53.767Z,18.40
2023-05-03T10:40:56.701Z,18.70
2023-05-03T10:43:00.709Z,18.10
2023-05-03T10:45:04.191Z,18.10
2023-05-03T10:47:15.983Z,18.50
2023-05-03T10:49:19.816Z,19.20
2023-05-03T10:51:43.090Z,19.20
2023-05-03T10:53:45.978Z,18.90
2023-05-03T10:56:02.588Z,18.40
2023-05-03T10:58:05.378Z,19.00
2023-05-03T11:00:13.585Z,18.10
2023-05-03T11:02:18.445Z,18.60
2023-05-03T11:04:42.806Z,18.60
2023-05-03T11:06:46.511Z,18.20
2023-05-03T11:08:49.536Z,18.10
2023-05-03T11:10:58.041Z,18.50
2023-05-03T11:13:00.843Z,18.30
2023-05-03T11:15:03.853Z,19.00
2023-05-03T11:17:06.821Z,19.60
2023-05-03T11:19:10.950Z,19.70
2023-05-03T11:21:13.872Z,20.20
2023-05-03T11:23:16.735Z,19.30
2023-05-03T11:25:19.657Z,19.10
2023-05-03T11:27:25.050Z,19.00
2023-05-03T11:29:28.269Z,19.10
2023-05-03T11:31:31.086Z,18.60
2023-05-03T11:33:35.115Z,18.40
2023-05-03T11:35:39.587Z,18.50
2023-05-03T11:37:42.870Z,18.50
2023-05-03T11:39:47.437Z,19.10
2023-05-03T11:42:04.277Z,19.00
2023-05-03T11:44:15.959Z,18.50
2023-05-03T11:46:22.078Z,18.90
2023-05-03T11:48:25.953Z,19.60
2023-05-03T11:50:29.440Z,20.00
2023-05-03T11:52:33.559Z,20.00
2023-05-03T11:54:37.516Z,20.30
2023-05-03T11:56:40.327Z,20.70
2023-05-03T11:59:01.163Z,20.50
2023-05-03T12:01:05.858Z,19.90
2023-05-03T12:03:10.680Z,19.40
2023-05-03T12:05:14.328Z,19.00
2023-05-03T12:07:21.015Z,19.00
2023-05-03T12:09:27.516Z,19.80
2023-05-03T12:11:32.828Z,19.40
2023-05-03T12:13:38.682Z,19.50
2023-05-03T12:15:43.682Z,20.40
2023-05-03T12:17:49.960Z,20.50
2023-05-03T12:20:12.012Z,20.80
2023-05-03T12:22:25.940Z,20.10
2023-05-03T12:24:33.356Z,20.00
2023-05-03T12:26:38.040Z,20.60
2023-05-03T12:28:40.943Z,21.20
2023-05-03T12:30:45.767Z,21.30
2023-05-03T12:32:49.847Z,20.80
2023-05-03T12:34:57.136Z,20.20
2023-05-03T12:37:04.447Z,21.00
2023-05-03T12:39:10.899Z,20.50
2023-05-03T12:41:21.593Z,21.10
2023-05-03T12:43:37.010Z,21.40
2023-05-03T12:45:40.839Z,21.10
2023-05-03T12:47:44.570Z,20.90
2023-05-03T12:49:50.060Z,21.40
2023-05-03T12:52:24.016Z,21.20
2023-05-03T12:54:27.164Z,21.00
2023-05-03T12:56:33.215Z,21.10
2023-05-03T13:01:06.145Z,21.30
2023-05-03T13:03:21.453Z,21.60
2023-05-03T13:07:31.591Z,20.40
2023-05-03T13:10:12.064Z,20.30
2023-05-03T13:12:02.303Z,20.60
2023-05-03T13:14:05.148Z,20.70
2023-05-03T13:16:08.548Z,20.60
2023-05-03T13:18:11.467Z,20.50
2023-05-03T13:20:14.984Z,20.60
2023-05-03T13:22:18.019Z,20.90
2023-05-03T13:24:20.809Z,21.00
2023-05-03T13:26:23.591Z,20.00
2023-05-03T13:28:27.698Z,20.30
2023-05-03T13:30:30.560Z,20.60
2023-05-03T13:32:34.178Z,20.60
2023-05-03T13:34:37.533Z,21.00
2023-05-03T13:36:40.373Z,20.70
2023-05-03T13:38:43.126Z,20.60
2023-05-03T13:40:46.016Z,20.70
2023-05-03T13:42:48.783Z,20.80
2023-05-03T13:44:53.020Z,21.00
2023-05-03T13:46:56.387Z,20.30
2023-05-03T13:48:59.274Z,20.20
2023-05-03T13:51:03.043Z,20.60
2023-05-03T13:53:05.886Z,20.30
2023-05-03T13:55:09.346Z,19.80
2023-05-03T13:57:12.120Z,19.40
2023-05-03T13:59:15.138Z,19.90
2023-05-03T14:01:19.303Z,19.90
2023-05-03T14:03:22.542Z,20.00
2023-05-03T14:05:25.611Z,20.10
2023-05-03T14:07:28.374Z,20.10
2023-05-03T14:09:31.433Z,20.10
2023-05-03T14:11:34.365Z,19.50
2023-05-03T14:13:53.848Z,19.00
2023-05-03T14:15:59.005Z,19.30
2023-05-03T14:18:05.647Z,19.20
2023-05-03T14:20:11.979Z,19.30
2023-05-03T14:22:14.769Z,19.50
2023-05-03T14:24:17.556Z,19.20
2023-05-03T14:26:21.949Z,19.70
2023-05-03T14:28:24.739Z,19.60
2023-05-03T14:30:27.536Z,19.50
2023-05-03T14:32:30.735Z,19.80
2023-05-03T14:34:34.914Z,19.90
2023-05-03T14:36:39.609Z,20.20
2023-05-03T14:38:42.412Z,20.10
2023-05-03T14:40:45.249Z,19.90
2023-05-03T14:42:48.770Z,20.00
2023-05-03T14:44:51.571Z,19.40
2023-05-03T14:46:58.564Z,20.00
2023-05-03T14:49:02.034Z,19.50
2023-05-03T14:51:06.932Z,19.50
2023-05-03T14:53:09.705Z,19.70
2023-05-03T14:55:12.575Z,19.70
2023-05-03T14:57:15.334Z,19.90
2023-05-03T14:59:18.111Z,19.80
2023-05-03T15:01:21.198Z,19.60
2023-05-03T15:03:24.600Z,19.70
2023-05-03T15:05:27.531Z,19.50
2023-05-03T15:07:32.289Z,19.50
2023-05-03T15:09:35.129Z,19.40
2023-05-03T15:11:38.119Z,19.60
2023-05-03T15:13:40.897Z,19.50
2023-05-03T15:15:44.281Z,19.30
2023-05-03T15:17:47.285Z,19.40
2023-05-03T15:19:50.508Z,19.30
2023-05-03T15:21:53.362Z,19.20
2023-05-03T15:23:58.054Z,19.20
2023-05-03T15:26:01.523Z,19.10
2023-05-03T15:28:04.827Z,19.00
2023-05-03T15:30:08.977Z,19.10
2023-05-03T15:32:11.756Z,19.00
2023-05-03T15:34:14.559Z,18.80
2023-05-03T15:36:17.561Z,18.70
2023-05-03T15:38:20.398Z,18.40
2023-05-03T15:40:26.697Z,18.50
2023-05-03T15:42:29.919Z,18.20
2023-05-03T15:44:32.695Z,18.00
2023-05-03T15:46:36.106Z,18.10
2023-05-03T15:48:39.217Z,18.20
2023-05-03T15:50:42.021Z,18.10
2023-05-03T15:52:46.280Z,18.10
2023-05-03T15:54:49.084Z,18.10
2023-05-03T15:56:53.728Z,18.20
2023-05-03T15:58:56.571Z,18.00
2023-05-03T16:00:59.972Z,17.90
2023-05-03T16:03:02.797Z,17.90
2023-05-03T16:05:06.149Z,17.50
2023-05-03T16:07:08.950Z,17.50
2023-05-03T16:09:12.761Z,17.10
2023-05-03T16:11:15.863Z,17.10
2023-05-03T16:13:20.359Z,17.20
2023-05-03T16:15:23.351Z,17.30
2023-05-03T16:17:26.319Z,17.40
2023-05-03T16:19:29.190Z,17.30
2023-05-03T16:21:32.425Z,17.30
2023-05-03T16:23:35.277Z,17.40
2023-05-03T16:25:38.069Z,17.40
2023-05-03T16:27:41.023Z,17.40
2023-05-03T16:29:45.171Z,17.50
2023-05-03T16:31:47.984Z,17.50
2023-05-03T16:33:50.769Z,17.60
2023-05-03T16:35:53.567Z,17.20
2023-05-03T16:37:56.636Z,17.20
2023-05-03T16:39:59.563Z,17.30
2023-05-03T16:42:02.707Z,17.40
2023-05-03T16:44:06.135Z,17.00
2023-05-03T16:46:10.358Z,17.00
2023-05-03T16:48:13.253Z,17.10
2023-05-03T16:50:17.934Z,16.90
2023-05-03T16:52:20.733Z,16.90
2023-05-03T16:54:23.777Z,17.00
2023-05-03T16:56:27.027Z,16.90
2023-05-03T16:58:29.821Z,16.80
2023-05-03T17:00:32.881Z,16.70
2023-05-03T17:02:37.099Z,16.60
2023-05-03T17:04:39.912Z,16.60
2023-05-03T17:06:42.683Z,16.40
2023-05-03T17:08:45.768Z,16.00
2023-05-03T17:10:48.619Z,15.90
2023-05-03T17:12:52.514Z,16.00
2023-05-03T17:14:55.611Z,16.00
2023-05-03T17:16:58.419Z,15.90
2023-05-03T17:19:02.573Z,15.80
2023-05-03T17:21:05.815Z,15.60
2023-05-03T17:23:09.574Z,15.60
2023-05-03T17:25:12.525Z,15.60
2023-05-03T17:27:15.288Z,15.40
2023-05-03T17:29:18.183Z,15.40
2023-05-03T17:31:20.976Z,15.40
2023-05-03T17:33:24.563Z,15.20
2023-05-03T17:35:28.785Z,15.10
2023-05-03T17:37:31.585Z,14.90
2023-05-03T17:39:34.601Z,14.80
2023-05-03T17:41:38.154Z,14.70
2023-05-03T17:43:41.489Z,14.50
2023-05-03T17:45:44.655Z,14.40
2023-05-03T17:47:47.635Z,14.30
2023-05-03T17:49:50.623Z,14.20
2023-05-03T17:51:54.740Z,14.10
2023-05-03T17:53:57.523Z,14.00
2023-05-03T17:56:00.348Z,13.90
2023-05-03T17:58:03.229Z,13.80
2023-05-03T18:00:11.097Z,13.80
2023-05-03T18:02:14.290Z,13.70
2023-05-03T18:04:17.152Z,13.70
2023-05-03T18:06:19.929Z,13.60
2023-05-03T18:08:24.030Z,13.60
2023-05-03T18:10:26.875Z,13.50
2023-05-03T18:12:29.739Z,13.50
2023-05-03T18:14:33.860Z,13.50
2023-05-03T18:16:36.984Z,13.50
2023-05-03T18:18:40.089Z,13.40
2023-05-03T18:20:42.854Z,13.50
2023-05-03T18:22:45.640Z,13.40
2023-05-03T18:24:53.950Z,13.30
2023-05-03T18:26:57.053Z,13.30
2023-05-03T18:28:59.852Z,13.20
2023-05-03T18:31:03.809Z,13.20
2023-05-03T18:33:06.705Z,13.10
2023-05-03T18:35:10.284Z,13.10
2023-05-03T18:37:13.488Z,13.00
2023-05-03T18:39:17.184Z,13.00
2023-05-03T18:41:21.452Z,13.00
2023-05-03T18:43:24.267Z,13.00
2023-05-03T18:45:27.096Z,12.90
2023-05-03T18:47:29.887Z,12.80
2023-05-03T18:49:32.689Z,12.80
2023-05-03T18:51:35.455Z,12.60
2023-05-03T18:53:38.217Z,12.60
2023-05-03T18:55:41.553Z,12.60
2023-05-03T18:57:45.694Z,12.50
2023-05-03T18:59:59.449Z,12.50
2023-05-03T19:02:03.869Z,12.40
2023-05-03T19:04:07.873Z,12.40
2023-05-03T19:06:11.365Z,12.30
2023-05-03T19:08:14.487Z,12.30
2023-05-03T19:10:17.369Z,12.10
2023-05-03T19:12:20.216Z,12.10
2023-05-03T19:14:24.347Z,12.10
2023-05-03T19:16:27.821Z,12.00
2023-05-03T19:18:30.913Z,12.00
2023-05-03T19:20:33.690Z,11.90
2023-05-03T19:22:36.442Z,11.80
2023-05-03T19:24:39.913Z,11.80
2023-05-03T19:26:42.692Z,11.70
2023-05-03T19:28:45.791Z,11.60
2023-05-03T19:30:51.698Z,11.60
2023-05-03T19:32:54.573Z,11.50
2023-05-03T19:34:57.722Z,11.50
2023-05-03T19:37:00.630Z,11.40
2023-05-03T19:39:03.538Z,11.50
2023-05-03T19:41:09.452Z,11.50
2023-05-03T19:43:12.213Z,11.40
2023-05-03T19:45:15.102Z,11.50
2023-05-03T19:47:19.232Z,11.50
2023-05-03T19:49:23.871Z,11.50
2023-05-03T19:51:27.789Z,11.50
2023-05-03T19:53:31.390Z,11.50
2023-05-03T19:55:34.238Z,11.50
2023-05-03T19:57:37.061Z,11.50
2023-05-03T19:59:39.866Z,11.40
2023-05-03T20:01:43.020Z,11.30
2023-05-03T20:03:47.320Z,11.30
2023-05-03T20:05:50.210Z,11.20
2023-05-03T20:07:53.104Z,11.10
2023-05-03T20:09:55.904Z,11.10
2023-05-03T20:11:59.612Z,11.20
2023-05-03T20:14:02.379Z,11.20
2023-05-03T20:16:06.074Z,11.20
2023-05-03T20:18:09.116Z,11.10
2023-05-03T20:20:15.162Z,11.00
2023-05-03T20:22:17.920Z,10.80
2023-05-03T20:24:21.436Z,10.60
2023-05-03T20:26:24.322Z,10.50
2023-05-03T20:28:27.524Z,10.50
2023-05-03T20:30:31.728Z,10.50
2023-05-03T20:32:36.283Z,10.50
2023-05-03T20:34:40.159Z,10.40
2023-05-03T20:36:44.269Z,10.40
2023-05-03T20:38:47.074Z,10.30
2023-05-03T20:40:50.962Z,10.20
2023-05-03T20:42:53.727Z,10.30
2023-05-03T20:44:56.522Z,10.20
2023-05-03T20:46:59.299Z,10.00
2023-05-03T20:49:02.314Z,10.00
2023-05-03T20:51:05.159Z,10.00
2023-05-03T20:53:09.280Z,10.00
2023-05-03T20:55:12.064Z,10.00
2023-05-03T20:57:15.854Z,9.90
2023-05-03T20:59:18.644Z,9.80
2023-05-03T21:01:22.640Z,9.70
2023-05-03T21:03:26.127Z,9.70
2023-05-03T21:05:29.296Z,9.60
2023-05-03T21:07:34.178Z,9.60
2023-05-03T21:09:39.034Z,9.40
2023-05-03T21:11:42.417Z,9.50
2023-05-03T21:13:45.264Z,9.60
2023-05-03T21:15:48.099Z,9.70
2023-05-03T21:17:50.909Z,9.60
2023-05-03T21:19:54.125Z,9.60
2023-05-03T21:21:57.198Z,9.60
2023-05-03T21:23:59.974Z,9.60
2023-05-03T21:26:04.261Z,9.60
2023-05-03T21:28:07.050Z,9.60
2023-05-03T21:30:10.874Z,9.50
2023-05-03T21:32:13.660Z,9.50
2023-05-03T21:34:16.425Z,9.40
2023-05-03T21:36:19.222Z,9.40
2023-05-03T21:38:22.094Z,9.40
2023-05-03T21:40:24.894Z,9.40
2023-05-03T21:42:29.007Z,9.40
2023-05-03T21:44:31.800Z,9.40
2023-05-03T21:46:34.592Z,9.40
2023-05-03T21:48:37.502Z,9.40
2023-05-03T21:50:40.317Z,9.40
2023-05-03T21:52:43.122Z,9.30
2023-05-03T21:54:46.315Z,9.30
2023-05-03T21:56:49.144Z,9.20
2023-05-03T21:58:53.439Z,9.20
2023-05-03T22:00:56.219Z,9.10
2023-05-03T22:02:59.137Z,9.10
2023-05-03T22:05:02.020Z,9.10
2023-05-03T22:07:04.791Z,9.10
2023-05-03T22:09:08.704Z,9.10
2023-05-03T22:11:11.445Z,9.20
2023-05-03T22:13:14.319Z,9.10
2023-05-03T22:15:19.652Z,9.00
2023-05-03T22:17:22.889Z,8.90
2023-05-03T22:19:25.707Z,8.80
2023-05-03T22:21:28.420Z,8.70
2023-05-03T22:23:31.253Z,8.70
2023-05-03T22:25:34.122Z,8.60
2023-05-03T22:27:37.334Z,8.60
2023-05-03T22:29:40.098Z,8.40
2023-05-03T22:31:44.313Z,8.40
2023-05-03T22:33:48.762Z,8.30
2023-05-03T22:35:52.252Z,8.30
2023-05-03T22:37:55.033Z,8.20
2023-05-03T22:39:57.784Z,8.00
2023-05-03T22:42:00.732Z,8.00
2023-05-03T22:44:03.492Z,7.90
2023-05-03T22:46:06.513Z,7.90
2023-05-03T22:48:10.665Z,7.80
2023-05-03T22:50:13.442Z,7.70
2023-05-03T22:52:16.148Z,7.70
2023-05-03T22:54:18.874Z,7.70
2023-05-03T22:56:21.591Z,7.70
2023-05-03T22:58:24.447Z,7.70
2023-05-03T23:00:27.264Z,7.70
2023-05-03T23:02:30.120Z,7.70
2023-05-03T23:04:34.360Z,7.60
2023-05-03T23:06:37.344Z,7.60
2023-05-03T23:08:40.067Z,7.40
2023-05-03T23:10:42.883Z,7.40
2023-05-03T23:12:45.928Z,7.30
2023-05-03T23:14:48.800Z,7.20
2023-05-03T23:16:51.594Z,7.10
2023-05-03T23:18:55.775Z,7.10
2023-05-03T23:21:00.006Z,7.00
2023-05-03T23:23:02.766Z,6.90
2023-05-03T23:25:06.374Z,6.90
2023-05-03T23:27:10.756Z,6.90
2023-05-03T23:29:13.994Z,7.00
2023-05-03T23:31:17.316Z,6.90
2023-05-03T23:33:20.442Z,6.90
2023-05-03T23:35:23.816Z,7.00
2023-05-03T23:37:27.895Z,7.00
2023-05-03T23:39:30.662Z,6.90
2023-05-03T23:41:34.047Z,6.90
2023-05-03T23:43:36.957Z,6.90
2023-05-03T23:45:39.723Z,6.80
2023-05-03T23:47:42.518Z,6.80
2023-05-03T23:49:45.354Z,6.80
2023-05-03T23:51:48.115Z,6.80
2023-05-03T23:53:52.804Z,6.80
2023-05-03T23:55:55.583Z,6.80
2023-05-03T23:57:58.410Z,6.70
